sensor_id;sensor_type;location;lat;lon;timestamp;temperature;humidity
20102;DHT22;10210;52.284;9.892;2022-11-20T00:01:23;1.60;99.90
20102;DHT22;10210;52.284;9.892;2022-11-20T00:03:55;1.50;99.90
20102;DHT22;10210;52.284;9.892;2022-11-20T00:06:22;1.50;99.90
20102;DHT22;10210;52.284;9.892;2022-11-20T00:08:49;1.50;99.90
20102;DHT22;10210;52.284;9.892;2022-11-20T00:11:18;1.50;99.90
20102;DHT22;10210;52.284;9.892;2022-11-20T00:13:47;1.50;99.90
20102;DHT22;10210;52.284;9.892;2022-11-20T00:16:17;1.50;99.90
20102;DHT22;10210;52.284;9.892;2022-11-20T00:18:45;1.50;99.90
20102;DHT22;10210;52.284;9.892;2022-11-20T00:21:13;1.50;99.90
20102;DHT22;10210;52.284;9.892;2022-11-20T00:23:43;1.50;99.90
20102;DHT22;10210;52.284;9.892;2022-11-20T00:26:11;1.50;99.90
20102;DHT22;10210;52.284;9.892;2022-11-20T00:28:39;1.50;99.90
20102;DHT22;10210;52.284;9.892;2022-11-20T00:31:11;1.50;99.90
20102;DHT22;10210;52.284;9.892;2022-11-20T00:33:38;1.50;99.90
20102;DHT22;10210;52.284;9.892;2022-11-20T00:36:06;1.60;99.90
20102;DHT22;10210;52.284;9.892;2022-11-20T00:38:36;1.50;99.90
20102;DHT22;10210;52.284;9.892;2022-11-20T00:41:05;1.50;99.90
20102;DHT22;10210;52.284;9.892;2022-11-20T00:43:33;1.60;99.90
20102;DHT22;10210;52.284;9.892;2022-11-20T00:46:00;1.60;99.90
20102;DHT22;10210;52.284;9.892;2022-11-20T00:48:28;1.50;99.90
20102;DHT22;10210;52.284;9.892;2022-11-20T00:50:54;1.50;99.90
20102;DHT22;10210;52.284;9.892;2022-11-20T00:53:20;1.50;99.90
20102;DHT22;10210;52.284;9.892;2022-11-20T00:55:57;1.50;99.90
20102;DHT22;10210;52.284;9.892;2022-11-20T00:58:27;1.50;99.90
20102;DHT22;10210;52.284;9.892;2022-11-20T01:01:08;1.50;99.90
20102;DHT22;10210;52.284;9.892;2022-11-20T01:03:40;1.40;99.90
20102;DHT22;10210;52.284;9.892;2022-11-20T01:06:14;1.40;99.90
20102;DHT22;10210;52.284;9.892;2022-11-20T01:08:48;1.40;99.90
20102;DHT22;10210;52.284;9.892;2022-11-20T01:11:22;1.40;99.90
20102;DHT22;10210;52.284;9.892;2022-11-20T01:13:50;1.40;99.90
20102;DHT22;10210;52.284;9.892;2022-11-20T01:16:19;1.40;99.90
20102;DHT22;10210;52.284;9.892;2022-11-20T01:18:47;1.40;99.90
20102;DHT22;10210;52.284;9.892;2022-11-20T01:21:17;1.30;99.90
20102;DHT22;10210;52.284;9.892;2022-11-20T01:23:45;1.30;99.90
20102;DHT22;10210;52.284;9.892;2022-11-20T01:26:20;1.30;99.90
20102;DHT22;10210;52.284;9.892;2022-11-20T01:28:48;1.30;99.90
20102;DHT22;10210;52.284;9.892;2022-11-20T01:31:34;1.30;99.90
20102;DHT22;10210;52.284;9.892;2022-11-20T01:34:04;1.30;99.90
20102;DHT22;10210;52.284;9.892;2022-11-20T01:36:33;1.20;99.90
20102;DHT22;10210;52.284;9.892;2022-11-20T01:39:03;1.20;99.90
20102;DHT22;10210;52.284;9.892;2022-11-20T01:41:32;1.20;99.90
20102;DHT22;10210;52.284;9.892;2022-11-20T01:44:20;1.20;99.90
20102;DHT22;10210;52.284;9.892;2022-11-20T01:46:59;1.20;99.90
20102;DHT22;10210;52.284;9.892;2022-11-20T01:49:37;1.20;99.90
20102;DHT22;10210;52.284;9.892;2022-11-20T01:52:16;1.20;99.90
20102;DHT22;10210;52.284;9.892;2022-11-20T01:54:50;1.20;99.90
20102;DHT22;10210;52.284;9.892;2022-11-20T01:57:20;1.20;99.90
20102;DHT22;10210;52.284;9.892;2022-11-20T01:59:54;1.20;99.90
20102;DHT22;10210;52.284;9.892;2022-11-20T02:02:27;1.20;99.90
20102;DHT22;10210;52.284;9.892;2022-11-20T02:04:54;1.20;99.90
20102;DHT22;10210;52.284;9.892;2022-11-20T02:07:26;1.20;99.90
20102;DHT22;10210;52.284;9.892;2022-11-20T02:09:53;1.20;99.90
20102;DHT22;10210;52.284;9.892;2022-11-20T02:12:18;1.20;99.90
20102;DHT22;10210;52.284;9.892;2022-11-20T02:15:03;1.20;99.90
20102;DHT22;10210;52.284;9.892;2022-11-20T02:17:29;1.20;99.90
20102;DHT22;10210;52.284;9.892;2022-11-20T02:19:55;1.20;99.90
20102;DHT22;10210;52.284;9.892;2022-11-20T02:22:28;1.30;99.90
20102;DHT22;10210;52.284;9.892;2022-11-20T02:25:02;1.30;99.90
20102;DHT22;10210;52.284;9.892;2022-11-20T02:27:30;1.30;99.90
20102;DHT22;10210;52.284;9.892;2022-11-20T02:30:02;1.30;99.90
20102;DHT22;10210;52.284;9.892;2022-11-20T02:32:34;1.30;99.90
20102;DHT22;10210;52.284;9.892;2022-11-20T02:37:43;1.30;99.90
20102;DHT22;10210;52.284;9.892;2022-11-20T02:40:10;1.30;99.90
20102;DHT22;10210;52.284;9.892;2022-11-20T02:42:37;1.30;99.90
20102;DHT22;10210;52.284;9.892;2022-11-20T02:45:04;1.30;99.90
20102;DHT22;10210;52.284;9.892;2022-11-20T02:47:31;1.30;99.90
20102;DHT22;10210;52.284;9.892;2022-11-20T02:49:57;1.30;99.90
20102;DHT22;10210;52.284;9.892;2022-11-20T02:52:23;1.40;99.90
20102;DHT22;10210;52.284;9.892;2022-11-20T02:54:49;1.30;99.90
20102;DHT22;10210;52.284;9.892;2022-11-20T02:57:15;1.40;99.90
20102;DHT22;10210;52.284;9.892;2022-11-20T02:59:41;1.40;99.90
20102;DHT22;10210;52.284;9.892;2022-11-20T03:02:07;1.40;99.90
20102;DHT22;10210;52.284;9.892;2022-11-20T03:04:33;1.40;99.90
20102;DHT22;10210;52.284;9.892;2022-11-20T03:06:59;1.40;99.90
20102;DHT22;10210;52.284;9.892;2022-11-20T03:09:24;1.40;99.90
20102;DHT22;10210;52.284;9.892;2022-11-20T03:11:50;1.40;99.90
20102;DHT22;10210;52.284;9.892;2022-11-20T03:14:16;1.40;99.90
20102;DHT22;10210;52.284;9.892;2022-11-20T03:16:42;1.40;99.90
20102;DHT22;10210;52.284;9.892;2022-11-20T03:19:07;1.40;99.90
20102;DHT22;10210;52.284;9.892;2022-11-20T03:21:34;1.40;99.90
20102;DHT22;10210;52.284;9.892;2022-11-20T03:24:01;1.40;99.90
20102;DHT22;10210;52.284;9.892;2022-11-20T03:26:27;1.40;99.90
20102;DHT22;10210;52.284;9.892;2022-11-20T03:28:56;1.40;99.90
20102;DHT22;10210;52.284;9.892;2022-11-20T03:31:31;1.40;99.90
20102;DHT22;10210;52.284;9.892;2022-11-20T03:34:00;1.30;99.90
20102;DHT22;10210;52.284;9.892;2022-11-20T03:36:27;1.40;99.90
20102;DHT22;10210;52.284;9.892;2022-11-20T03:38:54;1.40;99.90
20102;DHT22;10210;52.284;9.892;2022-11-20T03:41:24;1.40;99.90
20102;DHT22;10210;52.284;9.892;2022-11-20T03:43:53;1.40;99.90
20102;DHT22;10210;52.284;9.892;2022-11-20T03:46:22;1.30;99.90
20102;DHT22;10210;52.284;9.892;2022-11-20T03:48:48;1.30;99.90
20102;DHT22;10210;52.284;9.892;2022-11-20T03:51:15;1.30;99.90
20102;DHT22;10210;52.284;9.892;2022-11-20T03:53:44;1.30;99.90
20102;DHT22;10210;52.284;9.892;2022-11-20T03:56:13;1.40;99.90
20102;DHT22;10210;52.284;9.892;2022-11-20T03:58:40;1.40;99.90
20102;DHT22;10210;52.284;9.892;2022-11-20T04:01:10;1.40;99.90
20102;DHT22;10210;52.284;9.892;2022-11-20T04:03:42;1.40;99.90
20102;DHT22;10210;52.284;9.892;2022-11-20T04:06:17;1.40;99.90
20102;DHT22;10210;52.284;9.892;2022-11-20T04:08:45;1.40;99.90
20102;DHT22;10210;52.284;9.892;2022-11-20T04:11:15;1.40;99.90
20102;DHT22;10210;52.284;9.892;2022-11-20T04:13:41;1.40;99.90
20102;DHT22;10210;52.284;9.892;2022-11-20T04:16:09;1.40;99.90
20102;DHT22;10210;52.284;9.892;2022-11-20T04:18:35;1.40;99.90
20102;DHT22;10210;52.284;9.892;2022-11-20T04:21:01;1.40;99.90
20102;DHT22;10210;52.284;9.892;2022-11-20T04:23:28;1.40;99.90
20102;DHT22;10210;52.284;9.892;2022-11-20T04:25:53;1.40;99.90
20102;DHT22;10210;52.284;9.892;2022-11-20T04:28:19;1.40;99.90
20102;DHT22;10210;52.284;9.892;2022-11-20T04:30:45;1.40;99.90
20102;DHT22;10210;52.284;9.892;2022-11-20T04:33:11;1.40;99.90
20102;DHT22;10210;52.284;9.892;2022-11-20T04:35:38;1.40;99.90
20102;DHT22;10210;52.284;9.892;2022-11-20T04:38:04;1.40;99.90
20102;DHT22;10210;52.284;9.892;2022-11-20T04:40:30;1.40;99.90
20102;DHT22;10210;52.284;9.892;2022-11-20T04:42:56;1.40;99.90
20102;DHT22;10210;52.284;9.892;2022-11-20T04:45:22;1.40;99.90
20102;DHT22;10210;52.284;9.892;2022-11-20T04:47:48;1.40;99.90
20102;DHT22;10210;52.284;9.892;2022-11-20T04:50:14;1.40;99.90
20102;DHT22;10210;52.284;9.892;2022-11-20T04:52:41;1.40;99.90
20102;DHT22;10210;52.284;9.892;2022-11-20T04:55:07;1.30;99.90
20102;DHT22;10210;52.284;9.892;2022-11-20T04:57:33;1.30;99.90
20102;DHT22;10210;52.284;9.892;2022-11-20T04:59:58;1.30;99.90
20102;DHT22;10210;52.284;9.892;2022-11-20T05:02:24;1.30;99.90
20102;DHT22;10210;52.284;9.892;2022-11-20T05:04:50;1.30;99.90
20102;DHT22;10210;52.284;9.892;2022-11-20T05:07:15;1.20;99.90
20102;DHT22;10210;52.284;9.892;2022-11-20T05:09:41;1.20;99.90
20102;DHT22;10210;52.284;9.892;2022-11-20T05:12:08;1.20;99.90
20102;DHT22;10210;52.284;9.892;2022-11-20T05:14:34;1.20;99.90
20102;DHT22;10210;52.284;9.892;2022-11-20T05:17:01;1.10;99.90
20102;DHT22;10210;52.284;9.892;2022-11-20T05:19:27;1.10;99.90
20102;DHT22;10210;52.284;9.892;2022-11-20T05:21:53;1.10;99.90
20102;DHT22;10210;52.284;9.892;2022-11-20T05:24:18;1.10;99.90
20102;DHT22;10210;52.284;9.892;2022-11-20T05:26:44;1.10;99.90
20102;DHT22;10210;52.284;9.892;2022-11-20T05:29:11;1.10;99.90
20102;DHT22;10210;52.284;9.892;2022-11-20T05:31:39;1.10;99.90
20102;DHT22;10210;52.284;9.892;2022-11-20T05:34:05;1.10;99.90
20102;DHT22;10210;52.284;9.892;2022-11-20T05:36:32;1.10;99.90
20102;DHT22;10210;52.284;9.892;2022-11-20T05:38:57;1.10;99.90
20102;DHT22;10210;52.284;9.892;2022-11-20T05:41:23;1.20;99.90
20102;DHT22;10210;52.284;9.892;2022-11-20T05:43:49;1.20;99.90
20102;DHT22;10210;52.284;9.892;2022-11-20T05:46:18;1.30;99.90
20102;DHT22;10210;52.284;9.892;2022-11-20T05:48:46;1.30;99.90
20102;DHT22;10210;52.284;9.892;2022-11-20T05:51:15;1.30;99.90
20102;DHT22;10210;52.284;9.892;2022-11-20T05:53:42;1.40;99.90
20102;DHT22;10210;52.284;9.892;2022-11-20T05:56:13;1.50;99.90
20102;DHT22;10210;52.284;9.892;2022-11-20T05:58:40;1.50;99.90
20102;DHT22;10210;52.284;9.892;2022-11-20T06:01:22;1.60;99.90
20102;DHT22;10210;52.284;9.892;2022-11-20T06:03:50;1.60;99.90
20102;DHT22;10210;52.284;9.892;2022-11-20T06:06:17;1.60;99.90
20102;DHT22;10210;52.284;9.892;2022-11-20T06:08:44;1.70;99.90
20102;DHT22;10210;52.284;9.892;2022-11-20T06:11:12;1.70;99.90
20102;DHT22;10210;52.284;9.892;2022-11-20T06:13:39;1.70;99.90
20102;DHT22;10210;52.284;9.892;2022-11-20T06:16:05;1.70;99.90
20102;DHT22;10210;52.284;9.892;2022-11-20T06:18:31;1.60;99.90
20102;DHT22;10210;52.284;9.892;2022-11-20T06:21:06;1.60;99.90
20102;DHT22;10210;52.284;9.892;2022-11-20T06:23:34;1.60;99.90
20102;DHT22;10210;52.284;9.892;2022-11-20T06:26:06;1.60;99.90
20102;DHT22;10210;52.284;9.892;2022-11-20T06:28:35;1.50;99.90
20102;DHT22;10210;52.284;9.892;2022-11-20T06:31:01;1.50;99.90
20102;DHT22;10210;52.284;9.892;2022-11-20T06:33:28;1.50;99.90
20102;DHT22;10210;52.284;9.892;2022-11-20T06:35:57;1.50;99.90
20102;DHT22;10210;52.284;9.892;2022-11-20T06:38:24;1.40;99.90
20102;DHT22;10210;52.284;9.892;2022-11-20T06:40:50;1.40;99.90
20102;DHT22;10210;52.284;9.892;2022-11-20T06:43:16;1.30;99.90
20102;DHT22;10210;52.284;9.892;2022-11-20T06:45:42;1.30;99.90
20102;DHT22;10210;52.284;9.892;2022-11-20T06:48:08;1.30;99.90
20102;DHT22;10210;52.284;9.892;2022-11-20T06:50:36;1.30;99.90
20102;DHT22;10210;52.284;9.892;2022-11-20T06:53:03;1.20;99.90
20102;DHT22;10210;52.284;9.892;2022-11-20T06:55:31;1.20;99.90
20102;DHT22;10210;52.284;9.892;2022-11-20T06:57:57;1.20;99.90
20102;DHT22;10210;52.284;9.892;2022-11-20T07:00:23;1.20;99.90
20102;DHT22;10210;52.284;9.892;2022-11-20T07:02:49;1.30;99.90
20102;DHT22;10210;52.284;9.892;2022-11-20T07:05:15;1.20;99.90
20102;DHT22;10210;52.284;9.892;2022-11-20T07:07:41;1.30;99.90
20102;DHT22;10210;52.284;9.892;2022-11-20T07:10:07;1.20;99.90
20102;DHT22;10210;52.284;9.892;2022-11-20T07:12:33;1.20;99.90
20102;DHT22;10210;52.284;9.892;2022-11-20T07:14:59;1.20;99.90
20102;DHT22;10210;52.284;9.892;2022-11-20T07:17:25;1.20;99.90
20102;DHT22;10210;52.284;9.892;2022-11-20T07:19:50;1.20;99.90
20102;DHT22;10210;52.284;9.892;2022-11-20T07:22:16;1.20;99.90
20102;DHT22;10210;52.284;9.892;2022-11-20T07:24:42;1.30;99.90
20102;DHT22;10210;52.284;9.892;2022-11-20T07:27:07;1.20;99.90
20102;DHT22;10210;52.284;9.892;2022-11-20T07:29:33;1.30;99.90
20102;DHT22;10210;52.284;9.892;2022-11-20T07:31:59;1.30;99.90
20102;DHT22;10210;52.284;9.892;2022-11-20T07:34:24;1.30;99.90
20102;DHT22;10210;52.284;9.892;2022-11-20T07:36:50;1.30;99.90
20102;DHT22;10210;52.284;9.892;2022-11-20T07:39:16;1.30;99.90
20102;DHT22;10210;52.284;9.892;2022-11-20T07:41:41;1.30;99.90
20102;DHT22;10210;52.284;9.892;2022-11-20T07:44:07;1.30;99.90
20102;DHT22;10210;52.284;9.892;2022-11-20T07:46:32;1.30;99.90
20102;DHT22;10210;52.284;9.892;2022-11-20T07:48:58;1.30;99.90
20102;DHT22;10210;52.284;9.892;2022-11-20T07:51:24;1.20;99.90
20102;DHT22;10210;52.284;9.892;2022-11-20T07:53:52;1.20;99.90
20102;DHT22;10210;52.284;9.892;2022-11-20T07:56:17;1.20;99.90
20102;DHT22;10210;52.284;9.892;2022-11-20T07:58:43;1.20;99.90
20102;DHT22;10210;52.284;9.892;2022-11-20T08:01:09;1.20;99.90
20102;DHT22;10210;52.284;9.892;2022-11-20T08:03:35;1.20;99.90
20102;DHT22;10210;52.284;9.892;2022-11-20T08:06:03;1.20;99.90
20102;DHT22;10210;52.284;9.892;2022-11-20T08:08:29;1.20;99.90
20102;DHT22;10210;52.284;9.892;2022-11-20T08:10:58;1.20;99.90
20102;DHT22;10210;52.284;9.892;2022-11-20T08:13:42;1.20;99.90
20102;DHT22;10210;52.284;9.892;2022-11-20T08:16:27;1.20;99.90
20102;DHT22;10210;52.284;9.892;2022-11-20T08:18:53;1.20;99.90
20102;DHT22;10210;52.284;9.892;2022-11-20T08:21:19;1.20;99.90
20102;DHT22;10210;52.284;9.892;2022-11-20T08:23:45;1.20;99.90
20102;DHT22;10210;52.284;9.892;2022-11-20T08:26:11;1.20;99.90
20102;DHT22;10210;52.284;9.892;2022-11-20T08:28:36;1.20;99.90
20102;DHT22;10210;52.284;9.892;2022-11-20T08:31:02;1.20;99.90
20102;DHT22;10210;52.284;9.892;2022-11-20T08:33:29;1.30;99.90
20102;DHT22;10210;52.284;9.892;2022-11-20T08:36:04;1.30;99.90
20102;DHT22;10210;52.284;9.892;2022-11-20T08:38:30;1.30;99.90
20102;DHT22;10210;52.284;9.892;2022-11-20T08:41:01;1.30;99.90
20102;DHT22;10210;52.284;9.892;2022-11-20T08:43:47;1.30;99.90
20102;DHT22;10210;52.284;9.892;2022-11-20T08:46:13;1.30;99.90
20102;DHT22;10210;52.284;9.892;2022-11-20T08:48:39;1.30;99.90
20102;DHT22;10210;52.284;9.892;2022-11-20T08:51:05;1.30;99.90
20102;DHT22;10210;52.284;9.892;2022-11-20T08:53:30;1.30;99.90
20102;DHT22;10210;52.284;9.892;2022-11-20T08:55:57;1.30;99.90
20102;DHT22;10210;52.284;9.892;2022-11-20T08:58:23;1.30;99.90
20102;DHT22;10210;52.284;9.892;2022-11-20T09:00:49;1.30;99.90
20102;DHT22;10210;52.284;9.892;2022-11-20T09:03:15;1.40;99.90
20102;DHT22;10210;52.284;9.892;2022-11-20T09:05:41;1.30;99.90
20102;DHT22;10210;52.284;9.892;2022-11-20T09:08:06;1.40;99.90
20102;DHT22;10210;52.284;9.892;2022-11-20T09:10:32;1.40;99.90
20102;DHT22;10210;52.284;9.892;2022-11-20T09:12:58;1.40;99.90
20102;DHT22;10210;52.284;9.892;2022-11-20T09:15:25;1.50;99.90
20102;DHT22;10210;52.284;9.892;2022-11-20T09:17:55;1.40;99.90
20102;DHT22;10210;52.284;9.892;2022-11-20T09:20:23;1.50;99.90
20102;DHT22;10210;52.284;9.892;2022-11-20T09:22:50;1.50;99.90
20102;DHT22;10210;52.284;9.892;2022-11-20T09:25:16;1.50;99.90
20102;DHT22;10210;52.284;9.892;2022-11-20T09:27:41;1.60;99.90
20102;DHT22;10210;52.284;9.892;2022-11-20T09:30:10;1.60;99.90
20102;DHT22;10210;52.284;9.892;2022-11-20T09:32:38;1.70;99.90
20102;DHT22;10210;52.284;9.892;2022-11-20T09:35:05;1.80;99.90
20102;DHT22;10210;52.284;9.892;2022-11-20T09:37:31;1.80;99.90
20102;DHT22;10210;52.284;9.892;2022-11-20T09:39:57;1.80;99.90
20102;DHT22;10210;52.284;9.892;2022-11-20T09:42:32;1.80;99.90
20102;DHT22;10210;52.284;9.892;2022-11-20T09:51:37;1.90;99.90
20102;DHT22;10210;52.284;9.892;2022-11-20T09:56:48;2.00;99.90
20102;DHT22;10210;52.284;9.892;2022-11-20T09:59:51;2.10;99.90
20102;DHT22;10210;52.284;9.892;2022-11-20T10:02:28;2.20;99.90
20102;DHT22;10210;52.284;9.892;2022-11-20T10:05:17;2.30;99.90
20102;DHT22;10210;52.284;9.892;2022-11-20T10:10:48;2.60;99.90
20102;DHT22;10210;52.284;9.892;2022-11-20T10:28:15;3.10;99.90
20102;DHT22;10210;52.284;9.892;2022-11-20T10:31:03;3.10;99.90
20102;DHT22;10210;52.284;9.892;2022-11-20T10:33:41;3.10;99.90
20102;DHT22;10210;52.284;9.892;2022-11-20T10:36:17;3.10;99.90
20102;DHT22;10210;52.284;9.892;2022-11-20T10:38:56;3.10;99.90
20102;DHT22;10210;52.284;9.892;2022-11-20T10:41:32;3.10;99.90
20102;DHT22;10210;52.284;9.892;2022-11-20T10:44:17;3.10;99.90
20102;DHT22;10210;52.284;9.892;2022-11-20T10:47:05;3.20;99.90
20102;DHT22;10210;52.284;9.892;2022-11-20T10:49:36;3.10;99.90
20102;DHT22;10210;52.284;9.892;2022-11-20T10:55:15;3.20;99.90
20102;DHT22;10210;52.284;9.892;2022-11-20T10:58:13;3.20;99.90
20102;DHT22;10210;52.284;9.892;2022-11-20T11:00:42;3.20;99.90
20102;DHT22;10210;52.284;9.892;2022-11-20T11:03:28;3.20;99.90
20102;DHT22;10210;52.284;9.892;2022-11-20T11:06:31;3.30;99.90
20102;DHT22;10210;52.284;9.892;2022-11-20T11:09:06;3.30;99.90
20102;DHT22;10210;52.284;9.892;2022-11-20T11:11:38;3.30;99.90
20102;DHT22;10210;52.284;9.892;2022-11-20T11:14:15;3.30;99.90
20102;DHT22;10210;52.284;9.892;2022-11-20T11:16:52;3.30;99.90
20102;DHT22;10210;52.284;9.892;2022-11-20T11:19:19;3.40;99.90
20102;DHT22;10210;52.284;9.892;2022-11-20T11:21:56;3.40;99.90
20102;DHT22;10210;52.284;9.892;2022-11-20T11:24:29;3.40;99.90
20102;DHT22;10210;52.284;9.892;2022-11-20T11:27:01;3.50;99.90
20102;DHT22;10210;52.284;9.892;2022-11-20T11:29:36;3.50;99.90
20102;DHT22;10210;52.284;9.892;2022-11-20T11:32:13;3.50;99.90
20102;DHT22;10210;52.284;9.892;2022-11-20T11:34:43;3.50;99.90
20102;DHT22;10210;52.284;9.892;2022-11-20T11:37:18;3.60;99.90
20102;DHT22;10210;52.284;9.892;2022-11-20T11:39:47;3.70;99.90
20102;DHT22;10210;52.284;9.892;2022-11-20T11:42:17;3.70;99.90
20102;DHT22;10210;52.284;9.892;2022-11-20T11:44:46;3.80;99.90
20102;DHT22;10210;52.284;9.892;2022-11-20T11:47:46;3.80;99.90
20102;DHT22;10210;52.284;9.892;2022-11-20T11:50:15;3.90;99.90
20102;DHT22;10210;52.284;9.892;2022-11-20T11:53:14;3.90;99.90
20102;DHT22;10210;52.284;9.892;2022-11-20T11:56:02;3.90;99.90
20102;DHT22;10210;52.284;9.892;2022-11-20T11:58:46;3.90;99.90
20102;DHT22;10210;52.284;9.892;2022-11-20T12:04:14;3.90;99.90
20102;DHT22;10210;52.284;9.892;2022-11-20T12:06:45;3.90;99.90
20102;DHT22;10210;52.284;9.892;2022-11-20T12:09:18;4.00;99.90
20102;DHT22;10210;52.284;9.892;2022-11-20T12:12:04;3.90;99.90
20102;DHT22;10210;52.284;9.892;2022-11-20T12:14:41;4.00;99.90
20102;DHT22;10210;52.284;9.892;2022-11-20T12:17:12;4.00;99.90
20102;DHT22;10210;52.284;9.892;2022-11-20T12:19:39;4.00;99.90
20102;DHT22;10210;52.284;9.892;2022-11-20T12:25:22;4.00;99.90
20102;DHT22;10210;52.284;9.892;2022-11-20T12:28:07;4.10;99.90
20102;DHT22;10210;52.284;9.892;2022-11-20T12:36:13;4.20;99.90
20102;DHT22;10210;52.284;9.892;2022-11-20T12:51:32;4.30;99.90
20102;DHT22;10210;52.284;9.892;2022-11-20T12:54:33;4.30;99.90
20102;DHT22;10210;52.284;9.892;2022-11-20T12:57:29;4.30;99.90
20102;DHT22;10210;52.284;9.892;2022-11-20T13:05:44;4.40;99.90
20102;DHT22;10210;52.284;9.892;2022-11-20T13:08:22;4.40;99.90
20102;DHT22;10210;52.284;9.892;2022-11-20T13:11:18;4.40;99.90
20102;DHT22;10210;52.284;9.892;2022-11-20T13:19:03;4.50;99.90
20102;DHT22;10210;52.284;9.892;2022-11-20T13:21:41;4.50;99.90
20102;DHT22;10210;52.284;9.892;2022-11-20T13:27:05;4.60;99.90
20102;DHT22;10210;52.284;9.892;2022-11-20T13:29:59;4.60;99.90
20102;DHT22;10210;52.284;9.892;2022-11-20T13:32:51;4.60;99.90
20102;DHT22;10210;52.284;9.892;2022-11-20T13:35:41;4.70;99.90
20102;DHT22;10210;52.284;9.892;2022-11-20T13:38:14;4.70;99.90
20102;DHT22;10210;52.284;9.892;2022-11-20T13:40:58;4.70;99.90
20102;DHT22;10210;52.284;9.892;2022-11-20T13:43:47;4.80;99.90
20102;DHT22;10210;52.284;9.892;2022-11-20T13:46:13;4.80;99.90
20102;DHT22;10210;52.284;9.892;2022-11-20T13:48:42;4.80;99.90
20102;DHT22;10210;52.284;9.892;2022-11-20T13:51:35;4.90;99.90
20102;DHT22;10210;52.284;9.892;2022-11-20T14:02:26;5.10;99.90
20102;DHT22;10210;52.284;9.892;2022-11-20T14:04:57;5.10;99.90
20102;DHT22;10210;52.284;9.892;2022-11-20T14:07:35;5.10;99.90
20102;DHT22;10210;52.284;9.892;2022-11-20T14:10:05;5.00;99.90
20102;DHT22;10210;52.284;9.892;2022-11-20T14:12:43;5.00;99.90
20102;DHT22;10210;52.284;9.892;2022-11-20T14:15:28;5.00;99.90
20102;DHT22;10210;52.284;9.892;2022-11-20T14:17:56;5.00;99.90
20102;DHT22;10210;52.284;9.892;2022-11-20T14:20:29;5.00;99.90
20102;DHT22;10210;52.284;9.892;2022-11-20T14:22:56;5.00;99.90
20102;DHT22;10210;52.284;9.892;2022-11-20T14:25:24;5.00;99.90
20102;DHT22;10210;52.284;9.892;2022-11-20T14:27:57;4.90;99.90
20102;DHT22;10210;52.284;9.892;2022-11-20T14:30:37;5.00;99.90
20102;DHT22;10210;52.284;9.892;2022-11-20T14:33:11;5.00;99.90
20102;DHT22;10210;52.284;9.892;2022-11-20T14:35:50;5.00;99.90
20102;DHT22;10210;52.284;9.892;2022-11-20T14:38:22;5.00;99.90
20102;DHT22;10210;52.284;9.892;2022-11-20T14:40:50;5.00;99.90
20102;DHT22;10210;52.284;9.892;2022-11-20T14:43:22;5.10;99.90
20102;DHT22;10210;52.284;9.892;2022-11-20T14:48:38;5.10;99.90
20102;DHT22;10210;52.284;9.892;2022-11-20T14:51:08;5.20;99.90
20102;DHT22;10210;52.284;9.892;2022-11-20T14:53:36;5.20;99.90
20102;DHT22;10210;52.284;9.892;2022-11-20T14:56:02;5.10;99.90
20102;DHT22;10210;52.284;9.892;2022-11-20T14:58:30;5.10;99.90
20102;DHT22;10210;52.284;9.892;2022-11-20T15:01:04;5.10;99.90
20102;DHT22;10210;52.284;9.892;2022-11-20T15:03:39;5.10;99.90
20102;DHT22;10210;52.284;9.892;2022-11-20T15:06:07;5.00;99.90
20102;DHT22;10210;52.284;9.892;2022-11-20T15:08:37;5.00;99.90
20102;DHT22;10210;52.284;9.892;2022-11-20T15:11:03;5.00;99.90
20102;DHT22;10210;52.284;9.892;2022-11-20T15:13:41;5.00;99.90
20102;DHT22;10210;52.284;9.892;2022-11-20T15:16:19;5.00;99.90
20102;DHT22;10210;52.284;9.892;2022-11-20T15:18:46;5.00;99.90
20102;DHT22;10210;52.284;9.892;2022-11-20T15:21:17;5.00;99.90
20102;DHT22;10210;52.284;9.892;2022-11-20T15:23:44;5.00;99.90
20102;DHT22;10210;52.284;9.892;2022-11-20T15:26:12;4.90;99.90
20102;DHT22;10210;52.284;9.892;2022-11-20T15:28:45;4.90;99.90
20102;DHT22;10210;52.284;9.892;2022-11-20T15:31:15;5.00;99.90
20102;DHT22;10210;52.284;9.892;2022-11-20T15:33:42;5.00;99.90
20102;DHT22;10210;52.284;9.892;2022-11-20T15:36:09;5.00;99.90
20102;DHT22;10210;52.284;9.892;2022-11-20T15:38:35;4.90;99.90
20102;DHT22;10210;52.284;9.892;2022-11-20T15:41:01;4.90;99.90
20102;DHT22;10210;52.284;9.892;2022-11-20T15:43:27;4.90;99.90
20102;DHT22;10210;52.284;9.892;2022-11-20T15:46:01;4.90;99.90
20102;DHT22;10210;52.284;9.892;2022-11-20T15:48:44;4.90;99.90
20102;DHT22;10210;52.284;9.892;2022-11-20T15:53:38;4.90;99.90
20102;DHT22;10210;52.284;9.892;2022-11-20T15:56:06;4.80;99.90
20102;DHT22;10210;52.284;9.892;2022-11-20T15:58:37;4.80;99.90
20102;DHT22;10210;52.284;9.892;2022-11-20T16:01:04;4.80;99.90
20102;DHT22;10210;52.284;9.892;2022-11-20T16:03:30;4.80;99.90
20102;DHT22;10210;52.284;9.892;2022-11-20T16:05:55;4.80;99.90
20102;DHT22;10210;52.284;9.892;2022-11-20T16:08:21;4.70;99.90
20102;DHT22;10210;52.284;9.892;2022-11-20T16:10:47;4.70;99.90
20102;DHT22;10210;52.284;9.892;2022-11-20T16:13:17;4.70;99.90
20102;DHT22;10210;52.284;9.892;2022-11-20T16:16:18;4.70;99.90
20102;DHT22;10210;52.284;9.892;2022-11-20T16:18:46;4.70;99.90
20102;DHT22;10210;52.284;9.892;2022-11-20T16:21:11;4.70;99.90
20102;DHT22;10210;52.284;9.892;2022-11-20T16:23:41;4.60;99.90
20102;DHT22;10210;52.284;9.892;2022-11-20T16:26:15;4.60;99.90
20102;DHT22;10210;52.284;9.892;2022-11-20T16:28:45;4.60;99.90
20102;DHT22;10210;52.284;9.892;2022-11-20T16:31:16;4.50;99.90
20102;DHT22;10210;52.284;9.892;2022-11-20T16:33:49;4.50;99.90
20102;DHT22;10210;52.284;9.892;2022-11-20T16:36:16;4.50;99.90
20102;DHT22;10210;52.284;9.892;2022-11-20T16:38:42;4.50;99.90
20102;DHT22;10210;52.284;9.892;2022-11-20T16:41:09;4.40;99.90
20102;DHT22;10210;52.284;9.892;2022-11-20T16:43:49;4.40;99.90
20102;DHT22;10210;52.284;9.892;2022-11-20T16:46:17;4.40;99.90
20102;DHT22;10210;52.284;9.892;2022-11-20T16:48:51;4.30;99.90
20102;DHT22;10210;52.284;9.892;2022-11-20T16:51:18;4.30;99.90
20102;DHT22;10210;52.284;9.892;2022-11-20T16:53:44;4.30;99.90
20102;DHT22;10210;52.284;9.892;2022-11-20T16:56:12;4.30;99.90
20102;DHT22;10210;52.284;9.892;2022-11-20T16:58:41;4.20;99.90
20102;DHT22;10210;52.284;9.892;2022-11-20T17:01:09;4.20;99.90
20102;DHT22;10210;52.284;9.892;2022-11-20T17:03:37;4.20;99.90
20102;DHT22;10210;52.284;9.892;2022-11-20T17:06:18;4.20;99.90
20102;DHT22;10210;52.284;9.892;2022-11-20T17:08:46;4.10;99.90
20102;DHT22;10210;52.284;9.892;2022-11-20T17:11:15;4.10;99.90
20102;DHT22;10210;52.284;9.892;2022-11-20T17:13:42;4.10;99.90
20102;DHT22;10210;52.284;9.892;2022-11-20T17:16:15;4.10;99.90
20102;DHT22;10210;52.284;9.892;2022-11-20T17:18:42;4.10;99.90
20102;DHT22;10210;52.284;9.892;2022-11-20T17:21:09;4.00;99.90
20102;DHT22;10210;52.284;9.892;2022-11-20T17:23:37;4.00;99.90
20102;DHT22;10210;52.284;9.892;2022-11-20T17:28:34;4.00;99.90
20102;DHT22;10210;52.284;9.892;2022-11-20T17:31:27;4.00;99.90
20102;DHT22;10210;52.284;9.892;2022-11-20T17:33:54;4.00;99.90